Time;durP1;ratioP1;P1;durP2;ratioP2;P2;SDS_P1;SDS_P2;PMS_P1;PMS_P2;Temp;Humidity;BMP_temperature;BMP_pressure;BME280_temperature;BME280_humidity;BME280_pressure;Samples;Min_cycle;Max_cycle;Signal;HPM_P1;HPM_P2
2023/02/07 00:02:24;;;;;;;10.50;5.70;;;2.40;99.20;;;;;;5071993;28;20041;-79
2023/02/07 00:04:50;;;;;;;11.50;5.80;;;2.30;99.30;;;;;;5072039;28;20128;-78
2023/02/07 00:07:15;;;;;;;11.57;5.57;;;2.30;99.30;;;;;;5070843;28;20442;-77
2023/02/07 00:09:41;;;;;;;14.95;6.38;;;2.30;99.30;;;;;;5072188;28;20045;-77
2023/02/07 00:12:07;;;;;;;17.60;6.45;;;2.40;99.30;;;;;;5071902;28;20359;-77
2023/02/07 00:14:33;;;;;;;15.20;6.78;;;2.50;99.50;;;;;;5071589;28;20024;-78
2023/02/07 00:16:58;;;;;;;14.73;7.13;;;2.40;99.40;;;;;;5071692;28;20033;-78
2023/02/07 00:19:24;;;;;;;13.50;6.38;;;2.50;99.40;;;;;;5072012;28;20032;-78
2023/02/07 00:21:50;;;;;;;16.95;6.55;;;2.50;99.30;;;;;;5072735;28;20094;-78
2023/02/07 00:24:15;;;;;;;17.05;7.15;;;2.50;99.30;;;;;;5071857;28;20028;-78
2023/02/07 00:26:42;;;;;;;11.63;6.43;;;2.30;99.40;;;;;;5071554;28;20058;-78
2023/02/07 00:29:07;;;;;;;14.93;6.60;;;2.30;99.50;;;;;;5071486;28;20462;-78
2023/02/07 00:31:34;;;;;;;14.05;6.10;;;2.20;99.40;;;;;;5070130;28;20039;-78
2023/02/07 00:34:02;;;;;;;12.13;7.00;;;2.20;99.40;;;;;;5070593;28;20032;-77
2023/02/07 00:36:30;;;;;;;13.60;7.05;;;2.20;99.60;;;;;;5071344;28;20028;-77
2023/02/07 00:38:58;;;;;;;16.45;6.50;;;2.40;99.80;;;;;;5069936;28;20025;-77
2023/02/07 00:41:24;;;;;;;14.57;6.75;;;2.30;99.20;;;;;;5071324;28;20509;-77
2023/02/07 00:43:49;;;;;;;17.23;7.85;;;2.20;99.30;;;;;;5071305;28;20108;-77
2023/02/07 00:46:16;;;;;;;13.80;6.55;;;2.00;99.60;;;;;;5071173;28;20065;-76
2023/02/07 00:48:42;;;;;;;16.52;7.75;;;2.10;99.70;;;;;;5070167;28;20366;-76
2023/02/07 00:51:10;;;;;;;14.77;6.53;;;2.10;99.80;;;;;;5070719;28;20549;-78
2023/02/07 00:53:36;;;;;;;17.70;6.72;;;2.00;99.80;;;;;;5070983;28;20063;-77
2023/02/07 00:56:02;;;;;;;10.77;5.97;;;1.90;99.60;;;;;;5070982;28;20029;-78
2023/02/07 00:58:28;;;;;;;18.73;7.03;;;1.90;99.70;;;;;;5069886;28;20377;-78
2023/02/07 01:00:54;;;;;;;8.88;5.68;;;1.90;99.70;;;;;;5071298;28;20428;-78
2023/02/07 01:03:19;;;;;;;11.35;5.88;;;2.00;99.70;;;;;;5069978;28;20107;-78
2023/02/07 01:05:45;;;;;;;11.48;6.05;;;1.90;99.60;;;;;;5069751;28;20044;-78
2023/02/07 01:08:11;;;;;;;11.27;6.00;;;1.90;99.70;;;;;;5069604;28;20102;-77
2023/02/07 01:10:42;;;;;;;12.15;6.93;;;1.90;99.60;;;;;;5070121;28;20029;-77
2023/02/07 01:13:08;;;;;;;11.73;6.53;;;1.80;99.80;;;;;;5069831;28;20082;-77
2023/02/07 01:15:38;;;;;;;13.70;6.88;;;1.80;99.60;;;;;;5070482;28;20032;-78
2023/02/07 01:18:05;;;;;;;14.38;7.03;;;1.70;99.70;;;;;;5069387;28;20032;-78
2023/02/07 01:20:32;;;;;;;13.57;7.38;;;1.80;99.90;;;;;;5070658;28;20036;-77
2023/02/07 01:22:58;;;;;;;15.60;7.70;;;1.70;99.90;;;;;;5070582;28;20040;-78
2023/02/07 01:25:24;;;;;;;16.27;7.75;;;1.80;99.90;;;;;;5070288;28;20039;-77
2023/02/07 01:27:49;;;;;;;15.60;8.35;;;1.80;99.90;;;;;;5069347;28;20351;-78
2023/02/07 01:30:15;;;;;;;14.82;8.13;;;1.70;99.90;;;;;;5070109;28;20024;-78
2023/02/07 01:32:42;;;;;;;14.90;7.80;;;1.60;99.90;;;;;;5070338;28;20044;-78
2023/02/07 01:35:08;;;;;;;17.27;8.15;;;1.60;99.90;;;;;;5070287;28;20740;-78
2023/02/07 01:37:34;;;;;;;13.63;8.52;;;1.60;99.90;;;;;;5070240;28;20036;-78
2023/02/07 01:40:00;;;;;;;15.73;8.52;;;1.60;99.90;;;;;;5070620;28;20029;-78
2023/02/07 01:42:27;;;;;;;16.58;9.05;;;1.60;99.90;;;;;;5070622;28;20427;-78
2023/02/07 01:44:53;;;;;;;15.95;8.50;;;1.60;99.90;;;;;;5070456;28;20227;-77
2023/02/07 01:47:22;;;;;;;18.45;9.80;;;1.50;99.90;;;;;;5070019;28;20115;-78
2023/02/07 01:49:50;;;;;;;17.30;9.25;;;1.50;99.90;;;;;;5070251;28;20094;-78
2023/02/07 01:52:23;;;;;;;17.63;9.10;;;1.80;99.90;;;;;;5070360;28;20224;-78
2023/02/07 01:54:53;;;;;;;14.32;8.40;;;1.60;99.90;;;;;;5070585;28;20361;-79
2023/02/07 01:57:21;;;;;;;17.58;8.63;;;1.60;99.90;;;;;;5070098;28;20449;-77
2023/02/07 01:59:50;;;;;;;15.10;8.18;;;1.60;99.90;;;;;;5068774;28;20407;-77
2023/02/07 02:02:18;;;;;;;23.15;9.25;;;1.60;99.90;;;;;;5070148;28;20471;-78
2023/02/07 02:04:43;;;;;;;;;;;1.70;99.90;;;;;;5070585;28;20048;-78
2023/02/07 02:07:10;;;;;;;16.48;8.88;;;1.70;99.90;;;;;;5069611;28;19909;-78
2023/02/07 02:09:37;;;;;;;17.88;8.73;;;1.70;99.90;;;;;;5068993;28;20397;-78
2023/02/07 02:12:02;;;;;;;17.02;8.98;;;1.70;99.90;;;;;;5071579;28;20029;-78
2023/02/07 02:14:54;;;;;;;15.57;8.07;;;1.70;99.90;;;;;;5070708;28;20017;-78
2023/02/07 02:17:53;;;;;;;14.70;8.68;;;1.70;99.90;;;;;;5068490;28;20043;-77
2023/02/07 02:20:57;;;;;;;17.52;9.27;;;1.70;99.90;;;;;;5071890;28;20030;-78
2023/02/07 02:23:34;;;;;;;17.40;9.60;;;1.70;99.90;;;;;;5054130;28;20036;-77
2023/02/07 02:26:27;;;;;;;22.45;8.98;;;1.80;99.90;;;;;;5075092;28;20060;-77
2023/02/07 02:29:23;;;;;;;17.38;8.75;;;1.80;99.90;;;;;;5033794;28;20053;-79
2023/02/07 02:32:08;;;;;;;18.23;8.90;;;1.80;99.90;;;;;;5033042;28;20029;-77
2023/02/07 02:34:54;;;;;;;17.05;8.45;;;1.80;99.90;;;;;;5035029;28;20056;-79
2023/02/07 02:37:28;;;;;;;17.98;9.57;;;1.80;99.90;;;;;;5035082;28;20426;-78
2023/02/07 02:40:24;;;;;;;19.77;9.63;;;1.90;99.90;;;;;;5035002;28;20021;-79
2023/02/07 02:43:24;;;;;;;23.08;9.35;;;1.90;99.70;;;;;;5034180;28;20123;-78
2023/02/07 02:46:07;;;;;;;17.73;9.10;;;2.00;99.60;;;;;;5031116;28;20047;-78
2023/02/07 02:48:34;;;;;;;19.70;9.70;;;2.10;99.50;;;;;;5036036;28;20120;-78
2023/02/07 02:51:00;;;;;;;18.60;9.45;;;2.10;99.50;;;;;;5034256;28;20121;-77
2023/02/07 02:53:26;;;;;;;16.50;9.30;;;2.10;99.60;;;;;;5033495;28;20041;-78
2023/02/07 02:56:16;;;;;;;16.73;9.32;;;2.00;99.60;;;;;;5032350;28;20048;-76
2023/02/07 02:59:00;;;;;;;19.35;9.05;;;1.90;99.60;;;;;;5031994;28;20025;-78
2023/02/07 03:01:41;;;;;;;19.27;10.13;;;1.90;99.90;;;;;;5033141;28;20022;-78
2023/02/07 03:04:22;;;;;;;18.27;8.90;;;1.90;99.90;;;;;;5033390;28;20017;-78
2023/02/07 03:07:24;;;;;;;16.65;9.20;;;1.80;99.80;;;;;;5032971;28;20056;-78
2023/02/07 03:10:16;;;;;;;19.48;9.95;;;1.70;99.90;;;;;;5032848;28;20053;-79
2023/02/07 03:13:24;;;;;;;18.08;9.13;;;1.70;99.90;;;;;;5031880;28;20091;-79
2023/02/07 03:16:13;;;;;;;20.27;9.80;;;1.70;99.90;;;;;;5032376;28;20495;-77
2023/02/07 03:19:08;;;;;;;18.75;9.60;;;1.90;99.90;;;;;;5031428;28;20044;-77
2023/02/07 03:21:40;;;;;;;17.98;10.23;;;1.80;99.80;;;;;;5032444;28;20041;-78
2023/02/07 03:24:23;;;;;;;17.98;9.13;;;1.80;99.80;;;;;;5032877;28;20040;-79
2023/02/07 03:26:51;;;;;;;17.70;9.25;;;1.90;99.60;;;;;;5037468;28;20387;-78
2023/02/07 03:29:19;;;;;;;18.42;10.30;;;1.90;99.60;;;;;;5051324;28;20037;-77
2023/02/07 03:31:49;;;;;;;17.83;8.98;;;1.90;99.60;;;;;;5051533;28;20029;-77
2023/02/07 03:34:20;;;;;;;19.83;9.75;;;1.70;99.60;;;;;;5052466;28;20021;-77
2023/02/07 03:37:11;;;;;;;20.63;10.07;;;1.60;99.80;;;;;;5053147;28;20028;-77
2023/02/07 03:39:37;;;;;;;15.73;9.18;;;1.60;99.90;;;;;;5052822;28;20294;-77
2023/02/07 03:42:08;;;;;;;21.40;9.80;;;1.50;99.70;;;;;;5052519;28;20032;-77
2023/02/07 03:44:35;;;;;;;20.90;10.63;;;1.40;99.70;;;;;;5052524;28;20029;-77
2023/02/07 03:47:01;;;;;;;19.23;9.85;;;1.30;99.90;;;;;;5051190;28;20379;-77
2023/02/07 03:49:27;;;;;;;19.90;9.63;;;1.30;99.80;;;;;;5052148;28;20055;-78
2023/02/07 03:51:52;;;;;;;21.80;10.13;;;1.30;99.90;;;;;;5052629;28;20024;-78
2023/02/07 03:54:18;;;;;;;18.27;9.90;;;1.40;99.90;;;;;;5052049;28;20033;-77
2023/02/07 03:56:44;;;;;;;28.58;11.07;;;1.40;99.90;;;;;;5052017;28;20455;-77
2023/02/07 03:59:09;;;;;;;22.65;10.15;;;1.30;99.60;;;;;;5052051;28;20475;-78
2023/02/07 04:01:40;;;;;;;21.45;10.02;;;1.20;99.90;;;;;;5052145;28;20033;-77
2023/02/07 04:04:07;;;;;;;25.48;10.82;;;1.30;99.90;;;;;;5051115;28;20041;-78
2023/02/07 04:06:33;;;;;;;22.37;10.50;;;1.30;99.90;;;;;;5051885;28;20301;-77
2023/02/07 04:08:58;;;;;;;19.85;9.75;;;1.30;99.90;;;;;;5051419;28;20774;-77
2023/02/07 04:11:24;;;;;;;22.02;10.25;;;1.40;99.80;;;;;;5051767;28;20366;-77
2023/02/07 04:13:50;;;;;;;18.13;9.65;;;1.30;99.70;;;;;;5051756;28;20033;-77
2023/02/07 04:16:15;;;;;;;22.65;10.65;;;1.20;99.70;;;;;;5050422;28;20021;-77
2023/02/07 04:18:41;;;;;;;23.13;11.68;;;1.10;99.70;;;;;;5052046;28;20502;-77
2023/02/07 04:21:08;;;;;;;23.90;11.50;;;1.20;99.90;;;;;;5051772;28;20029;-77
2023/02/07 04:23:34;;;;;;;21.42;10.48;;;1.20;99.80;;;;;;5051715;28;20036;-77
2023/02/07 04:25:59;;;;;;;19.02;10.27;;;1.10;99.80;;;;;;5051456;28;20470;-78
2023/02/07 04:28:26;;;;;;;21.75;11.07;;;1.00;99.90;;;;;;5051099;28;20106;-77
2023/02/07 04:30:52;;;;;;;22.85;11.10;;;1.10;99.80;;;;;;5050619;28;20021;-77
2023/02/07 04:33:20;;;;;;;20.38;10.90;;;1.00;99.80;;;;;;5051125;28;20434;-77
2023/02/07 04:35:59;;;;;;;20.88;10.63;;;1.00;99.70;;;;;;5051314;28;20311;-77
2023/02/07 04:38:25;;;;;;;21.13;10.80;;;0.90;99.70;;;;;;5050050;28;20057;-77
2023/02/07 04:40:51;;;;;;;22.30;11.43;;;0.80;99.70;;;;;;5049961;28;20427;-77
2023/02/07 04:43:17;;;;;;;23.58;11.80;;;0.80;99.80;;;;;;5051147;28;20094;-76
2023/02/07 04:45:47;;;;;;;23.05;11.90;;;0.80;99.90;;;;;;5050517;28;20056;-77
2023/02/07 04:48:13;;;;;;;23.25;11.95;;;0.80;99.80;;;;;;5050088;28;20371;-78
2023/02/07 04:50:39;;;;;;;22.38;10.98;;;0.70;99.80;;;;;;5051219;28;20071;-79
2023/02/07 04:53:04;;;;;;;20.92;11.70;;;0.70;99.80;;;;;;5051171;28;20057;-77
2023/02/07 04:55:30;;;;;;;25.10;11.65;;;0.80;99.80;;;;;;5050891;28;20496;-79
2023/02/07 04:57:55;;;;;;;23.80;11.65;;;0.70;99.60;;;;;;5050152;28;20029;-79
2023/02/07 05:00:21;;;;;;;24.30;12.02;;;0.70;99.60;;;;;;5049397;28;20408;-78
2023/02/07 05:02:47;;;;;;;24.95;11.43;;;0.70;99.70;;;;;;5049388;28;20029;-79
2023/02/07 05:05:13;;;;;;;23.85;11.82;;;0.70;99.70;;;;;;5050348;28;20459;-77
2023/02/07 05:07:38;;;;;;;24.80;12.02;;;0.70;99.80;;;;;;5049371;28;20028;-78
2023/02/07 05:10:04;;;;;;;26.88;11.52;;;0.60;99.80;;;;;;5050640;28;20238;-78
2023/02/07 05:12:30;;;;;;;25.58;12.20;;;0.70;99.90;;;;;;5050315;28;20518;-77
2023/02/07 05:14:55;;;;;;;22.95;11.90;;;0.70;99.50;;;;;;5050271;28;20108;-78
2023/02/07 05:17:21;;;;;;;24.88;10.82;;;0.70;99.40;;;;;;5050275;28;20037;-77
2023/02/07 05:19:47;;;;;;;26.00;11.77;;;0.60;99.40;;;;;;5050323;28;20048;-77
2023/02/07 05:22:12;;;;;;;25.15;12.38;;;0.50;99.70;;;;;;5050622;28;20025;-76
2023/02/07 05:24:38;;;;;;;24.30;10.65;;;0.60;99.90;;;;;;5050476;28;20056;-76
2023/02/07 05:27:04;;;;;;;24.83;12.60;;;0.70;99.90;;;;;;5050040;28;20057;-77
2023/02/07 05:29:29;;;;;;;27.50;12.98;;;0.50;99.90;;;;;;5050150;28;20437;-77
2023/02/07 05:34:39;;;;;;;29.92;13.02;;;0.60;99.90;;;;;;5050388;28;20430;-76
2023/02/07 05:37:05;;;;;;;24.83;12.00;;;0.70;99.90;;;;;;5050368;28;20029;-75
2023/02/07 05:39:31;;;;;;;27.38;12.25;;;0.60;99.90;;;;;;5048939;28;20029;-76
2023/02/07 05:41:57;;;;;;;27.13;12.23;;;0.70;99.90;;;;;;5050089;28;20059;-77
2023/02/07 05:44:22;;;;;;;26.42;12.48;;;0.70;99.90;;;;;;5048962;28;20061;-77
2023/02/07 05:46:48;;;;;;;28.80;13.82;;;0.70;99.90;;;;;;5050652;28;20345;-76
2023/02/07 05:49:13;;;;;;;29.10;13.25;;;0.70;99.90;;;;;;5050427;28;20052;-76
2023/02/07 05:51:39;;;;;;;32.70;13.63;;;0.70;99.90;;;;;;5050567;28;20340;-76
2023/02/07 05:54:05;;;;;;;25.83;12.05;;;0.70;99.90;;;;;;5050345;28;20102;-77
2023/02/07 05:56:30;;;;;;;23.65;12.52;;;0.80;99.90;;;;;;5051542;28;20378;-78
2023/02/07 05:58:56;;;;;;;25.92;12.45;;;0.80;99.90;;;;;;5054289;28;20039;-77
2023/02/07 06:01:22;;;;;;;21.15;10.73;;;0.80;99.90;;;;;;5053159;28;20351;-77
2023/02/07 06:03:47;;;;;;;29.90;12.77;;;0.60;99.90;;;;;;5054484;28;20097;-77
2023/02/07 06:06:13;;;;;;;25.25;12.38;;;0.60;99.90;;;;;;5053994;28;20333;-77
2023/02/07 06:08:39;;;;;;;26.67;13.25;;;0.60;99.90;;;;;;5052839;28;20051;-77
2023/02/07 06:11:04;;;;;;;27.67;12.95;;;0.60;99.90;;;;;;5053181;28;20029;-79
2023/02/07 06:13:30;;;;;;;26.10;12.32;;;0.60;99.90;;;;;;5054430;28;20094;-78
2023/02/07 06:15:55;;;;;;;29.45;13.30;;;0.80;99.90;;;;;;5074548;28;20105;-76
2023/02/07 06:18:21;;;;;;;31.23;12.88;;;0.60;99.90;;;;;;5074463;28;20036;-75
2023/02/07 06:20:50;;;;;;;24.15;11.90;;;0.60;99.90;;;;;;5074188;28;20024;-75
2023/02/07 06:23:15;;;;;;;28.88;13.82;;;0.60;99.90;;;;;;5074254;28;20119;-75
2023/02/07 06:25:41;;;;;;;28.05;12.85;;;0.60;99.90;;;;;;5073866;28;20194;-76
2023/02/07 06:28:07;;;;;;;26.77;13.07;;;0.70;99.90;;;;;;5056112;28;20052;-82
2023/02/07 06:30:33;;;;;;;29.75;14.45;;;0.60;99.90;;;;;;5051518;28;20025;-76
2023/02/07 06:32:59;;;;;;;33.33;13.98;;;0.50;99.90;;;;;;5054034;28;20030;-77
2023/02/07 06:35:24;;;;;;;35.70;13.30;;;0.80;99.90;;;;;;5053553;28;20036;-77
2023/02/07 06:37:50;;;;;;;33.92;12.73;;;0.80;99.80;;;;;;5052507;28;20032;-77
2023/02/07 06:40:16;;;;;;;24.58;12.38;;;0.70;99.70;;;;;;5052463;28;20025;-78
2023/02/07 06:42:43;;;;;;;25.75;13.20;;;0.80;99.80;;;;;;5054146;28;20035;-76
2023/02/07 06:45:09;;;;;;;29.45;14.15;;;0.80;99.80;;;;;;5053429;28;20025;-76
2023/02/07 06:47:35;;;;;;;28.92;13.13;;;0.70;99.80;;;;;;5051968;28;20048;-76
2023/02/07 06:50:00;;;;;;;35.70;13.20;;;0.70;99.70;;;;;;5053209;28;20071;-76
2023/02/07 06:52:26;;;;;;;26.67;13.52;;;0.70;99.90;;;;;;5053267;28;20039;-77
2023/02/07 06:54:52;;;;;;;29.92;13.05;;;0.70;99.80;;;;;;5053805;28;20024;-76
2023/02/07 06:57:18;;;;;;;29.05;13.57;;;0.70;99.90;;;;;;5051997;28;20065;-78
2023/02/07 06:59:43;;;;;;;31.92;13.98;;;0.60;99.80;;;;;;5053045;28;20037;-77
2023/02/07 07:02:11;;;;;;;28.10;12.93;;;0.80;99.90;;;;;;5053076;28;20044;-77
2023/02/07 07:04:36;;;;;;;30.92;13.43;;;1.00;99.60;;;;;;5052928;28;20071;-78
2023/02/07 07:07:02;;;;;;;29.65;13.10;;;1.10;99.60;;;;;;5052378;28;20025;-78
2023/02/07 07:09:28;;;;;;;28.67;14.18;;;1.40;99.60;;;;;;5052186;28;20041;-77
2023/02/07 07:11:54;;;;;;;26.23;13.10;;;1.10;99.50;;;;;;5052835;28;20056;-78
2023/02/07 07:14:19;;;;;;;33.35;14.88;;;1.10;99.60;;;;;;5053017;28;20037;-79
2023/02/07 07:16:45;;;;;;;29.88;13.55;;;1.10;99.60;;;;;;5051538;28;20362;-77
2023/02/07 07:19:11;;;;;;;32.40;14.77;;;1.30;99.70;;;;;;5052491;28;20036;-77
2023/02/07 07:21:37;;;;;;;28.67;13.82;;;1.20;99.40;;;;;;5052653;28;20113;-76
2023/02/07 07:24:03;;;;;;;29.73;13.50;;;1.20;99.30;;;;;;5052621;28;20083;-78
2023/02/07 07:26:29;;;;;;;25.60;12.90;;;1.10;99.10;;;;;;5051628;28;20369;-77
2023/02/07 07:28:57;;;;;;;30.92;14.40;;;1.00;99.20;;;;;;5052542;28;20041;-77
2023/02/07 07:31:23;;;;;;;34.20;14.00;;;1.00;99.40;;;;;;5052477;28;20029;-78
2023/02/07 07:33:49;;;;;;;29.02;14.10;;;0.90;99.40;;;;;;5052692;28;20232;-77
2023/02/07 07:36:15;;;;;;;28.75;14.00;;;0.90;99.70;;;;;;5052629;28;20048;-79
2023/02/07 07:38:41;;;;;;;32.17;15.57;;;0.90;99.60;;;;;;5052785;28;20040;-78
2023/02/07 07:41:06;;;;;;;29.00;13.77;;;0.90;99.60;;;;;;5052278;28;20030;-80
2023/02/07 07:43:32;;;;;;;29.30;13.77;;;1.00;99.70;;;;;;5052198;28;20177;-78
2023/02/07 07:45:59;;;;;;;29.38;14.50;;;1.10;99.60;;;;;;5051562;28;20029;-80
2023/02/07 07:48:25;;;;;;;31.55;15.00;;;1.00;99.50;;;;;;5052127;28;20131;-80
2023/02/07 07:50:51;;;;;;;32.83;14.57;;;1.00;99.60;;;;;;5052038;28;20025;-79
2023/02/07 07:53:18;;;;;;;29.42;14.38;;;1.10;99.70;;;;;;5052197;28;20044;-78
2023/02/07 07:55:52;;;;;;;29.95;13.95;;;1.10;99.90;;;;;;5051045;28;20029;-78
2023/02/07 07:58:18;;;;;;;35.53;15.27;;;1.20;99.90;;;;;;5050786;28;20183;-79
2023/02/07 08:00:44;;;;;;;34.40;14.13;;;1.20;99.90;;;;;;5051209;28;20029;-78
2023/02/07 08:03:11;;;;;;;32.95;15.40;;;1.30;99.90;;;;;;5050696;28;20087;-80
2023/02/07 08:05:37;;;;;;;30.20;14.13;;;1.30;99.90;;;;;;5052016;28;20415;-79
2023/02/07 08:08:02;;;;;;;26.58;14.35;;;1.30;99.90;;;;;;5050606;28;20346;-79
2023/02/07 08:10:28;;;;;;;30.40;14.50;;;1.30;99.90;;;;;;5051815;28;20443;-81
2023/02/07 08:12:54;;;;;;;28.50;14.60;;;1.30;99.90;;;;;;5052189;28;20031;-80
2023/02/07 08:15:19;;;;;;;30.02;14.82;;;1.40;99.90;;;;;;5051809;28;20112;-80
2023/02/07 08:17:45;;;;;;;26.08;13.52;;;1.50;99.90;;;;;;5050739;28;20025;-79
2023/02/07 08:20:11;;;;;;;32.55;13.68;;;1.40;99.90;;;;;;5051545;28;20037;-81
2023/02/07 08:22:37;;;;;;;36.30;14.38;;;1.50;99.90;;;;;;5051700;28;20040;-80
2023/02/07 08:25:04;;;;;;;28.38;14.48;;;1.60;99.90;;;;;;5052225;28;20083;-80
2023/02/07 08:27:30;;;;;;;29.67;13.75;;;1.60;99.90;;;;;;5051436;28;20049;-81
2023/02/07 08:29:55;;;;;;;32.53;15.10;;;1.70;99.90;;;;;;5051560;28;20060;-79
2023/02/07 08:32:22;;;;;;;31.63;14.98;;;1.70;99.70;;;;;;5051274;28;20116;-78
2023/02/07 08:34:47;;;;;;;33.50;14.85;;;1.80;99.90;;;;;;5051086;28;20033;-79
2023/02/07 08:37:13;;;;;;;28.58;14.93;;;1.70;99.80;;;;;;5051620;28;20059;-78
2023/02/07 08:39:39;;;;;;;38.88;15.73;;;1.80;99.80;;;;;;5049959;28;20041;-79
2023/02/07 08:42:07;;;;;;;29.98;13.82;;;1.90;99.70;;;;;;5051275;28;20090;-79
2023/02/07 08:44:33;;;;;;;;;;;1.90;99.60;;;;;;5051567;28;20029;-81
2023/02/07 08:46:58;;;;;;;29.83;13.35;;;2.10;99.70;;;;;;5050114;28;20290;-80
2023/02/07 08:49:24;;;;;;;29.58;14.68;;;2.40;99.90;;;;;;5051206;28;20037;-78
2023/02/07 08:51:51;;;;;;;28.50;13.93;;;2.80;99.70;;;;;;5051666;28;20025;-77
2023/02/07 08:54:17;;;;;;;27.93;13.77;;;3.40;99.20;;;;;;5051301;28;20025;-80
2023/02/07 08:56:43;;;;;;;27.15;11.98;;;3.90;98.20;;;;;;5051228;28;20273;-79
2023/02/07 08:59:10;;;;;;;25.38;12.55;;;4.60;97.50;;;;;;5050985;28;20367;-78
2023/02/07 09:01:35;;;;;;;24.27;12.25;;;4.90;96.50;;;;;;5050011;28;20508;-79
2023/02/07 09:04:01;;;;;;;21.75;11.52;;;5.20;96.00;;;;;;5051150;28;20389;-78
2023/02/07 09:06:27;;;;;;;26.88;13.05;;;5.50;95.50;;;;;;5051258;28;20458;-79
2023/02/07 09:08:53;;;;;;;26.50;12.75;;;5.80;95.00;;;;;;5050739;28;20032;-79
2023/02/07 09:11:19;;;;;;;18.70;11.05;;;5.90;95.10;;;;;;5050924;28;20048;-78
2023/02/07 09:13:45;;;;;;;20.02;10.75;;;5.80;93.80;;;;;;5050755;28;20529;-79
2023/02/07 09:16:14;;;;;;;20.83;10.88;;;5.90;93.80;;;;;;5051224;28;20021;-79
2023/02/07 09:18:41;;;;;;;18.40;11.23;;;5.90;93.50;;;;;;5050743;28;20115;-79
2023/02/07 09:21:07;;;;;;;19.85;11.05;;;5.70;93.10;;;;;;5050792;28;20067;-80
2023/02/07 09:23:34;;;;;;;21.23;11.85;;;5.70;93.20;;;;;;5050860;28;20040;-76
2023/02/07 09:26:03;;;;;;;19.48;11.07;;;5.50;92.80;;;;;;5050882;28;20159;-78
2023/02/07 09:28:29;;;;;;;18.83;10.77;;;5.30;93.30;;;;;;5050581;28;20118;-80
2023/02/07 09:30:55;;;;;;;19.60;10.27;;;5.20;93.30;;;;;;5049606;28;20029;-79
2023/02/07 09:33:23;;;;;;;17.45;10.25;;;5.10;93.30;;;;;;5050030;28;20033;-77
2023/02/07 09:35:50;;;;;;;16.38;9.95;;;5.00;93.40;;;;;;5050159;28;20029;-79
2023/02/07 09:38:21;;;;;;;18.13;9.57;;;4.90;93.30;;;;;;5050513;28;20422;-78
2023/02/07 09:40:50;;;;;;;18.02;10.20;;;4.80;93.20;;;;;;5050567;28;20041;-80
2023/02/07 09:43:37;;;;;;;19.80;10.90;;;4.70;93.30;;;;;;5049673;28;20029;-78
2023/02/07 09:46:11;;;;;;;16.63;10.02;;;4.60;93.20;;;;;;5050795;28;20021;-78
2023/02/07 09:49:06;;;;;;;22.48;10.73;;;4.50;93.40;;;;;;5050135;28;20029;-77
2023/02/07 09:51:33;;;;;;;15.77;8.80;;;4.50;93.50;;;;;;5030960;28;20029;-77
2023/02/07 09:54:21;;;;;;;19.00;10.13;;;4.50;93.30;;;;;;5050336;28;20121;-77
2023/02/07 09:56:48;;;;;;;17.80;9.20;;;4.40;93.10;;;;;;5050167;28;20029;-78
2023/02/07 09:59:40;;;;;;;13.48;8.50;;;4.20;93.20;;;;;;5050190;28;20107;-77
2023/02/07 10:02:17;;;;;;;19.05;9.65;;;4.20;93.10;;;;;;5050330;28;20033;-78
2023/02/07 10:04:47;;;;;;;17.95;9.35;;;4.10;93.20;;;;;;5050029;28;20029;-78
2023/02/07 10:07:13;;;;;;;16.35;9.35;;;4.20;93.00;;;;;;5050629;28;20323;-76
2023/02/07 10:09:42;;;;;;;18.83;9.82;;;4.20;93.20;;;;;;5049832;28;20509;-77
2023/02/07 10:12:28;;;;;;;18.98;9.50;;;4.20;93.10;;;;;;5050283;28;20043;-77
2023/02/07 10:15:13;;;;;;;21.70;9.77;;;4.30;93.30;;;;;;5050253;28;20543;-78
2023/02/07 10:17:47;;;;;;;18.90;9.05;;;4.40;93.10;;;;;;5049974;28;20258;-77
2023/02/07 10:20:25;;;;;;;18.17;9.18;;;4.50;93.00;;;;;;5050026;28;20085;-77
2023/02/07 10:23:00;;;;;;;18.10;8.45;;;4.50;92.60;;;;;;5049324;28;20104;-76
2023/02/07 10:25:37;;;;;;;19.60;10.00;;;4.60;92.30;;;;;;5048280;28;20028;-76
2023/02/07 10:28:18;;;;;;;19.52;9.70;;;4.60;92.50;;;;;;5048907;28;20041;-78
2023/02/07 10:30:51;;;;;;;21.25;10.20;;;4.70;92.20;;;;;;5049959;28;20068;-76
2023/02/07 10:33:21;;;;;;;17.17;8.95;;;5.50;92.40;;;;;;5049881;28;20405;-77
2023/02/07 10:35:47;;;;;;;18.70;8.65;;;6.80;90.90;;;;;;5050111;28;20028;-78
2023/02/07 10:38:35;;;;;;;13.90;7.45;;;8.20;88.50;;;;;;5048619;28;20167;-79
2023/02/07 10:41:19;;;;;;;14.30;7.88;;;9.50;85.10;;;;;;5048574;28;20033;-79
2023/02/07 10:43:46;;;;;;;16.45;8.05;;;10.40;81.80;;;;;;5052623;28;20025;-77
2023/02/07 10:46:14;;;;;;;11.70;7.15;;;10.10;77.60;;;;;;5053779;28;20047;-78
2023/02/07 10:48:40;;;;;;;15.18;7.30;;;10.00;76.30;;;;;;5053624;28;20070;-78
2023/02/07 10:51:34;;;;;;;14.32;7.78;;;10.90;78.10;;;;;;5052547;28;20057;-78
2023/02/07 10:54:06;;;;;;;18.73;7.28;;;11.60;74.60;;;;;;5051037;28;20036;-80
2023/02/07 10:56:36;;;;;;;14.90;7.82;;;12.10;68.40;;;;;;5052227;28;20029;-81
2023/02/07 10:59:02;;;;;;;12.55;7.05;;;12.50;70.40;;;;;;5053160;28;20119;-79
2023/02/07 11:01:30;;;;;;;15.52;7.60;;;13.40;66.60;;;;;;5052183;28;20079;-77
2023/02/07 11:03:57;;;;;;;18.02;6.70;;;13.70;63.80;;;;;;5053542;28;20040;-78
2023/02/07 11:06:31;;;;;;;13.90;7.05;;;14.00;60.80;;;;;;5053125;28;20040;-79
2023/02/07 11:09:20;;;;;;;16.25;6.82;;;14.00;59.20;;;;;;5051797;28;20025;-77
2023/02/07 11:11:50;;;;;;;11.63;6.38;;;14.60;59.10;;;;;;5052821;28;20071;-79
2023/02/07 11:14:25;;;;;;;10.88;6.70;;;15.00;57.90;;;;;;5051644;28;20045;-77
2023/02/07 11:16:52;;;;;;;12.05;6.65;;;15.30;58.00;;;;;;5052860;28;20029;-77
2023/02/07 11:19:24;;;;;;;12.50;7.50;;;15.20;54.10;;;;;;5052646;28;20025;-77
2023/02/07 11:21:52;;;;;;;21.67;7.57;;;15.00;57.20;;;;;;5053206;28;20025;-79
2023/02/07 11:24:28;;;;;;;11.30;6.28;;;14.70;54.20;;;;;;5051426;28;20402;-78
2023/02/07 11:27:01;;;;;;;12.98;6.47;;;15.00;51.30;;;;;;5052534;28;20114;-77
2023/02/07 11:29:30;;;;;;;10.00;5.93;;;15.80;53.70;;;;;;5052474;28;20558;-78
2023/02/07 11:32:01;;;;;;;12.45;6.80;;;15.80;50.00;;;;;;5051908;28;20036;-78
2023/02/07 11:34:45;;;;;;;11.50;6.95;;;15.30;49.20;;;;;;5052470;28;20145;-80
2023/02/07 11:37:28;;;;;;;10.93;6.22;;;15.60;50.50;;;;;;5052129;28;20105;-79
2023/02/07 11:40:15;;;;;;;10.57;6.60;;;16.00;50.10;;;;;;5053226;28;20039;-83
2023/02/07 11:42:41;;;;;;;12.85;7.03;;;16.20;49.60;;;;;;5052551;28;20033;-81
2023/02/07 11:45:13;;;;;;;13.90;7.28;;;16.30;48.50;;;;;;5052428;28;20095;-80
2023/02/07 11:47:41;;;;;;;10.70;7.05;;;16.20;48.50;;;;;;5051610;28;20032;-81
2023/02/07 11:50:15;;;;;;;11.13;7.07;;;16.70;50.30;;;;;;5052698;28;20052;-81
2023/02/07 11:52:58;;;;;;;14.50;7.35;;;16.60;47.00;;;;;;5051451;28;20033;-79
2023/02/07 11:55:38;;;;;;;9.07;5.57;;;16.80;46.50;;;;;;5051699;28;20082;-83
2023/02/07 11:58:22;;;;;;;8.65;6.00;;;16.60;45.30;;;;;;5052779;28;20090;-78
2023/02/07 12:00:48;;;;;;;9.80;6.03;;;16.40;46.10;;;;;;5052251;28;20412;-81
2023/02/07 12:03:26;;;;;;;10.20;6.18;;;16.20;45.40;;;;;;5052556;28;20122;-80
2023/02/07 12:05:54;;;;;;;;;;;15.40;46.50;;;;;;5052391;28;20029;-79
2023/02/07 12:08:23;;;;;;;8.18;5.40;;;14.70;45.90;;;;;;5051700;28;19923;-78
2023/02/07 12:11:02;;;;;;;14.50;5.20;;;14.00;45.40;;;;;;5050945;28;20059;-79
2023/02/07 12:13:52;;;;;;;10.85;5.28;;;13.50;45.30;;;;;;5051749;28;20021;-79
2023/02/07 12:16:23;;;;;;;9.07;5.28;;;13.40;46.70;;;;;;5050839;28;20027;-79
2023/02/07 12:18:52;;;;;;;10.50;6.15;;;13.00;46.60;;;;;;5052704;28;20025;-80
2023/02/07 12:21:45;;;;;;;9.20;5.55;;;12.50;47.50;;;;;;5052174;28;20049;-79
2023/02/07 12:24:28;;;;;;;8.75;4.65;;;12.40;47.30;;;;;;5051802;28;20033;-79
2023/02/07 12:27:05;;;;;;;26.40;6.95;;;12.20;46.20;;;;;;5051554;28;20045;-79
2023/02/07 12:30:11;;;;;;;9.80;5.70;;;12.10;46.10;;;;;;5051739;28;20432;-80
2023/02/07 12:32:48;;;;;;;14.52;7.32;;;11.70;46.50;;;;;;5051998;28;20040;-83
2023/02/07 12:35:34;;;;;;;9.77;5.65;;;11.60;47.60;;;;;;5052077;28;20260;-83
2023/02/07 12:38:12;;;;;;;12.20;6.18;;;11.50;46.80;;;;;;5051687;28;20071;-84
2023/02/07 12:40:53;;;;;;;13.43;6.25;;;11.00;47.00;;;;;;5050984;28;20048;-79
2023/02/07 12:43:29;;;;;;;14.23;6.45;;;10.80;47.60;;;;;;5051252;28;20452;-77
2023/02/07 12:46:01;;;;;;;14.45;6.60;;;11.00;48.40;;;;;;5050567;28;20104;-75
2023/02/07 12:48:36;;;;;;;11.68;6.82;;;10.50;49.70;;;;;;5050321;28;20052;-75
2023/02/07 12:51:24;;;;;;;10.60;5.53;;;10.60;50.00;;;;;;5050974;28;20347;-74
2023/02/07 12:54:18;;;;;;;10.95;5.95;;;10.40;49.20;;;;;;5050927;28;20029;-75
2023/02/07 12:56:56;;;;;;;12.38;6.10;;;10.40;49.30;;;;;;5051281;28;20051;-75
2023/02/07 12:59:28;;;;;;;13.90;6.32;;;10.30;49.10;;;;;;5051188;28;20029;-76
2023/02/07 13:02:23;;;;;;;10.20;4.80;;;10.20;48.80;;;;;;5050077;28;20072;-75